createdAt,value
2023-10-07T00:02:27.846Z,3.53
2023-10-07T00:04:56.247Z,3.35
2023-10-07T00:11:12.940Z,3.58
2023-10-07T00:13:43.981Z,3.38
2023-10-07T00:16:19.103Z,3.58
2023-10-07T00:18:46.918Z,3.55
2023-10-07T00:21:19.610Z,3.00
2023-10-07T00:23:47.477Z,3.35
2023-10-07T00:26:15.234Z,3.42
2023-10-07T00:29:42.734Z,3.67
2023-10-07T00:32:34.736Z,3.38
2023-10-07T00:35:02.430Z,3.90
2023-10-07T00:37:31.429Z,3.33
2023-10-07T00:40:02.495Z,4.18
2023-10-07T00:42:29.776Z,4.05
2023-10-07T00:44:58.168Z,3.58
2023-10-07T00:51:36.908Z,3.45
2023-10-07T00:54:22.941Z,3.38
2023-10-07T00:57:08.072Z,3.95
2023-10-07T00:59:37.172Z,3.47
2023-10-07T01:02:08.119Z,4.22
2023-10-07T01:04:41.813Z,4.07
2023-10-07T01:11:18.713Z,3.55
2023-10-07T01:13:52.448Z,4.53
2023-10-07T01:16:34.937Z,3.53
2023-10-07T01:23:04.223Z,4.03
2023-10-07T01:25:45.128Z,3.53
2023-10-07T01:28:16.189Z,3.20
2023-10-07T01:31:02.983Z,3.58
2023-10-07T01:33:40.283Z,4.68
2023-10-07T01:36:15.229Z,3.70
2023-10-07T01:39:08.092Z,3.30
2023-10-07T01:41:39.283Z,4.45
2023-10-07T01:44:06.845Z,2.97
2023-10-07T01:50:41.951Z,3.47
2023-10-07T01:53:10.009Z,3.00
2023-10-07T01:55:37.876Z,3.42
2023-10-07T02:02:12.931Z,3.75
2023-10-07T02:04:40.298Z,3.83
2023-10-07T02:07:09.684Z,4.25
2023-10-07T02:09:37.593Z,4.03
2023-10-07T02:12:12.526Z,4.18
2023-10-07T02:14:40.341Z,4.10
2023-10-07T02:17:09.099Z,4.68
2023-10-07T02:19:39.179Z,3.53
2023-10-07T02:22:08.909Z,4.15
2023-10-07T02:24:37.251Z,4.10
2023-10-07T02:27:55.352Z,4.20
2023-10-07T02:30:26.429Z,4.55
2023-10-07T02:32:53.964Z,4.40
2023-10-07T02:35:21.758Z,4.28
2023-10-07T02:37:51.888Z,4.05
2023-10-07T02:40:36.984Z,3.65
2023-10-07T02:43:29.947Z,3.97
2023-10-07T02:46:22.053Z,4.20
2023-10-07T02:48:49.822Z,4.38
2023-10-07T02:51:19.981Z,3.50
2023-10-07T03:03:49.539Z,4.70
2023-10-07T03:11:23.515Z,4.05
2023-10-07T03:13:58.738Z,3.88
2023-10-07T03:16:29.726Z,5.15
2023-10-07T03:19:49.663Z,4.75
2023-10-07T03:23:01.454Z,4.53
2023-10-07T03:25:35.488Z,4.70
2023-10-07T03:28:17.328Z,4.47
2023-10-07T03:30:52.572Z,4.60
2023-10-07T03:43:13.507Z,4.78
2023-10-07T03:45:43.586Z,4.20
2023-10-07T03:48:24.239Z,4.32
2023-10-07T03:51:15.372Z,4.85
2023-10-07T03:53:45.729Z,4.30
2023-10-07T03:56:14.551Z,4.20
2023-10-07T04:02:51.179Z,4.32
2023-10-07T04:09:34.919Z,3.97
2023-10-07T04:16:09.286Z,4.47
2023-10-07T04:18:36.641Z,3.63
2023-10-07T04:21:33.404Z,4.25
2023-10-07T04:33:42.231Z,4.97
2023-10-07T04:36:14.337Z,3.75
2023-10-07T04:38:54.518Z,4.82
2023-10-07T04:46:23.187Z,4.05
2023-10-07T04:48:57.846Z,4.38
2023-10-07T04:51:34.552Z,4.60
2023-10-07T04:54:01.965Z,4.45
2023-10-07T04:56:33.324Z,4.32
2023-10-07T04:59:07.730Z,4.45
2023-10-07T05:01:36.176Z,4.75
2023-10-07T05:04:05.664Z,4.47
2023-10-07T05:06:36.490Z,4.32
2023-10-07T05:09:32.252Z,3.67
2023-10-07T05:12:01.977Z,4.07
2023-10-07T05:14:29.756Z,4.97
2023-10-07T05:17:00.110Z,4.35
2023-10-07T05:19:28.912Z,4.43
2023-10-07T05:22:15.121Z,4.20
2023-10-07T05:24:46.471Z,4.22
2023-10-07T05:27:15.073Z,4.15
2023-10-07T05:29:44.573Z,4.60
2023-10-07T05:32:12.469Z,4.22
2023-10-07T05:34:39.863Z,4.30
2023-10-07T05:37:12.905Z,4.10
2023-10-07T05:40:08.435Z,3.63
2023-10-07T05:42:36.853Z,4.22
2023-10-07T05:45:07.251Z,4.72
2023-10-07T05:54:32.775Z,4.53
2023-10-07T05:57:03.426Z,3.92
2023-10-07T05:59:35.226Z,4.05
2023-10-07T06:02:08.668Z,4.00
2023-10-07T06:04:36.618Z,4.55
2023-10-07T06:07:07.245Z,4.07
2023-10-07T06:13:16.231Z,3.60
2023-10-07T06:15:43.642Z,4.13
2023-10-07T06:18:10.922Z,4.40
2023-10-07T06:20:47.886Z,4.03
2023-10-07T06:23:16.120Z,4.70
2023-10-07T06:25:50.840Z,4.57
2023-10-07T06:28:30.477Z,4.22
2023-10-07T06:31:29.153Z,5.38
2023-10-07T06:34:04.819Z,4.70
2023-10-07T06:37:31.887Z,5.03
2023-10-07T06:40:26.719Z,5.07
2023-10-07T06:42:57.124Z,4.95
2023-10-07T06:45:24.829Z,4.78
2023-10-07T06:51:37.659Z,5.60
2023-10-07T06:54:05.414Z,5.13
2023-10-07T06:56:35.524Z,5.15
2023-10-07T06:59:28.115Z,4.30
2023-10-07T07:02:33.831Z,4.97
2023-10-07T07:05:01.842Z,5.28
2023-10-07T07:07:29.178Z,4.95
2023-10-07T07:09:59.563Z,5.15
2023-10-07T07:12:27.439Z,4.88
2023-10-07T07:15:06.701Z,4.18
2023-10-07T07:17:37.457Z,4.75
2023-10-07T07:20:08.730Z,5.60
2023-10-07T07:22:46.910Z,5.38
2023-10-07T07:25:31.552Z,5.00
2023-10-07T07:28:24.748Z,5.32
2023-10-07T07:30:58.669Z,5.03
2023-10-07T07:33:44.167Z,4.75
2023-10-07T07:43:08.928Z,5.70
2023-10-07T07:45:39.526Z,5.38
2023-10-07T07:48:07.860Z,5.05
2023-10-07T07:54:41.942Z,6.10
2023-10-07T07:57:09.398Z,4.25
2023-10-07T07:59:36.726Z,5.47
2023-10-07T08:02:14.245Z,4.80
2023-10-07T08:04:49.592Z,4.75
2023-10-07T08:09:56.575Z,5.38
2023-10-07T08:12:32.251Z,4.15
2023-10-07T08:15:00.782Z,4.13
2023-10-07T08:24:53.672Z,5.07
2023-10-07T08:27:39.409Z,3.80
2023-10-07T08:30:32.346Z,4.45
2023-10-07T08:33:50.628Z,4.30
2023-10-07T08:36:18.825Z,3.67
2023-10-07T08:38:46.185Z,4.10
2023-10-07T08:41:17.423Z,4.60
2023-10-07T08:43:46.665Z,4.38
2023-10-07T08:46:18.349Z,4.68
2023-10-07T08:53:26.567Z,4.60
2023-10-07T08:56:01.935Z,4.20
2023-10-07T08:58:32.199Z,4.55
2023-10-07T09:01:00.338Z,3.90
2023-10-07T09:03:30.098Z,4.40
2023-10-07T09:06:01.306Z,4.50
2023-10-07T09:13:32.739Z,4.40
2023-10-07T09:16:00.591Z,4.40
2023-10-07T09:18:46.819Z,4.43
2023-10-07T09:21:23.796Z,4.05
2023-10-07T09:23:53.349Z,4.40
2023-10-07T09:26:23.829Z,5.50
2023-10-07T09:36:15.555Z,4.40
2023-10-07T09:38:44.882Z,5.55
2023-10-07T09:41:24.534Z,4.70
2023-10-07T09:43:58.772Z,4.75
2023-10-07T09:53:26.330Z,5.78
2023-10-07T09:55:59.681Z,5.85
2023-10-07T09:58:44.803Z,5.30
2023-10-07T10:01:44.178Z,6.25
2023-10-07T10:04:22.722Z,6.47
2023-10-07T10:07:44.172Z,6.03
2023-10-07T10:10:35.980Z,6.72
2023-10-07T10:13:03.299Z,7.10
2023-10-07T10:15:34.399Z,7.13
2023-10-07T10:18:06.698Z,7.50
2023-10-07T10:20:44.102Z,8.18
2023-10-07T10:23:21.553Z,8.77
2023-10-07T10:25:54.335Z,8.85
2023-10-07T10:29:01.095Z,8.75
2023-10-07T10:31:36.010Z,7.72
2023-10-07T10:34:06.062Z,8.23
2023-10-07T10:44:17.205Z,9.82
2023-10-07T10:47:34.838Z,9.60
2023-10-07T10:50:52.102Z,9.77
2023-10-07T10:57:25.642Z,11.23
2023-10-07T11:00:18.297Z,11.30
2023-10-07T11:10:43.633Z,11.80
2023-10-07T11:14:03.420Z,11.75
2023-10-07T11:17:20.074Z,11.02
2023-10-07T11:23:31.460Z,12.40
2023-10-07T11:30:07.978Z,13.13
2023-10-07T11:54:51.270Z,13.48
2023-10-07T12:01:26.144Z,13.60
2023-10-07T12:03:54.186Z,13.65
2023-10-07T12:07:15.424Z,14.93
2023-10-07T12:13:53.125Z,16.70
2023-10-07T12:16:22.405Z,17.48
2023-10-07T12:18:49.973Z,18.63
2023-10-07T12:21:18.218Z,18.45
2023-10-07T12:23:46.029Z,17.02
2023-10-07T12:26:16.858Z,16.23
2023-10-07T12:28:45.516Z,18.10
2023-10-07T12:31:13.999Z,16.33
2023-10-07T12:33:41.321Z,17.65
2023-10-07T12:36:13.200Z,17.38
2023-10-07T12:38:40.480Z,17.00
2023-10-07T12:41:10.526Z,15.82
2023-10-07T12:43:39.249Z,15.68
2023-10-07T12:46:10.790Z,15.90
2023-10-07T12:48:41.372Z,16.05
2023-10-07T12:51:09.740Z,14.05
2023-10-07T12:53:37.577Z,16.15
2023-10-07T12:56:13.935Z,13.65
2023-10-07T12:58:43.394Z,13.55
2023-10-07T13:01:13.390Z,13.27
2023-10-07T13:03:48.744Z,15.35
2023-10-07T13:08:45.293Z,13.43
2023-10-07T13:11:14.861Z,12.55
2023-10-07T13:13:42.801Z,12.30
2023-10-07T13:16:11.792Z,12.85
2023-10-07T13:18:43.013Z,13.05
2023-10-07T13:21:14.501Z,11.05
2023-10-07T13:23:42.142Z,12.55
2023-10-07T13:26:12.641Z,12.95
2023-10-07T13:28:40.525Z,11.07
2023-10-07T13:31:11.097Z,12.05
2023-10-07T13:33:38.434Z,10.35
2023-10-07T13:36:08.259Z,12.02
2023-10-07T13:38:36.161Z,12.18
2023-10-07T13:41:06.366Z,11.25
2023-10-07T13:43:36.598Z,11.07
2023-10-07T13:46:14.004Z,10.32
2023-10-07T13:48:43.874Z,10.95
2023-10-07T13:51:11.590Z,10.77
2023-10-07T13:53:52.786Z,9.48
2023-10-07T13:56:46.549Z,11.27
2023-10-07T13:59:14.868Z,11.07
2023-10-07T14:01:45.774Z,9.60
2023-10-07T14:04:17.151Z,9.52
2023-10-07T14:06:44.689Z,9.95
2023-10-07T14:09:24.862Z,10.18
2023-10-07T14:11:52.844Z,9.75
2023-10-07T14:14:20.487Z,9.68
2023-10-07T14:16:48.517Z,9.57
2023-10-07T14:19:16.666Z,8.32
2023-10-07T14:21:46.440Z,9.65
2023-10-07T14:24:15.198Z,8.07
2023-10-07T14:26:44.664Z,8.00
2023-10-07T14:29:12.441Z,10.25
2023-10-07T14:31:44.343Z,10.85
2023-10-07T14:34:13.210Z,11.32
2023-10-07T14:36:44.038Z,11.65
2023-10-07T14:39:13.960Z,12.73
2023-10-07T14:41:44.301Z,12.65
2023-10-07T14:44:11.971Z,11.70
2023-10-07T14:46:43.047Z,12.90
2023-10-07T14:49:11.617Z,13.45
2023-10-07T14:51:39.345Z,11.73
2023-10-07T14:54:06.594Z,11.65
2023-10-07T14:56:34.199Z,10.73
2023-10-07T14:59:01.677Z,7.13
2023-10-07T15:01:29.322Z,5.18
2023-10-07T15:03:57.130Z,3.15
2023-10-07T15:06:24.499Z,2.40
2023-10-07T15:08:52.268Z,2.85
2023-10-07T15:11:21.594Z,1.80
2023-10-07T15:13:50.643Z,2.03
2023-10-07T15:16:18.358Z,1.70
2023-10-07T15:18:47.356Z,1.30
2023-10-07T15:21:15.849Z,1.92
2023-10-07T15:23:43.401Z,3.83
2023-10-07T15:26:12.478Z,1.92
2023-10-07T15:28:40.671Z,1.70
2023-10-07T15:31:09.236Z,1.38
2023-10-07T15:34:09.325Z,1.33
2023-10-07T15:36:38.330Z,1.40
2023-10-07T15:39:06.427Z,1.60
2023-10-07T15:41:34.964Z,1.60
2023-10-07T15:44:02.410Z,1.75
2023-10-07T15:46:32.629Z,1.73
2023-10-07T15:49:08.729Z,1.40
2023-10-07T15:51:36.128Z,1.85
2023-10-07T15:54:05.428Z,1.70
2023-10-07T15:56:33.145Z,1.52
2023-10-07T15:59:00.525Z,1.23
2023-10-07T16:01:28.194Z,1.45
2023-10-07T16:03:55.615Z,1.90
2023-10-07T16:06:23.824Z,2.20
2023-10-07T16:08:52.683Z,1.38
2023-10-07T16:11:23.040Z,1.15
2023-10-07T16:13:50.611Z,1.10
2023-10-07T16:16:17.969Z,1.20
2023-10-07T16:18:46.606Z,0.93
2023-10-07T16:21:17.653Z,1.05
2023-10-07T16:23:45.577Z,1.33
2023-10-07T16:26:15.152Z,1.00
2023-10-07T16:28:46.490Z,1.20
2023-10-07T16:31:14.452Z,1.00
2023-10-07T16:33:42.389Z,1.27
2023-10-07T16:36:09.934Z,1.05
2023-10-07T16:38:45.432Z,1.42
2023-10-07T16:41:37.166Z,1.30
2023-10-07T16:44:05.057Z,1.00
2023-10-07T16:46:32.576Z,0.98
2023-10-07T16:49:00.995Z,0.63
2023-10-07T16:51:28.529Z,1.30
2023-10-07T16:53:55.749Z,1.40
2023-10-07T16:56:22.976Z,1.27
2023-10-07T16:58:50.210Z,1.30
2023-10-07T17:01:17.509Z,1.42
2023-10-07T17:03:45.841Z,1.48
2023-10-07T17:06:13.252Z,1.50
2023-10-07T17:08:40.692Z,1.25
2023-10-07T17:11:11.498Z,1.30
2023-10-07T17:13:41.742Z,0.80
2023-10-07T17:16:23.127Z,0.80
2023-10-07T17:19:01.608Z,0.82
2023-10-07T17:21:54.152Z,0.80
2023-10-07T17:24:21.394Z,0.68
2023-10-07T17:26:48.624Z,0.50
2023-10-07T17:29:15.915Z,1.02
2023-10-07T17:31:43.815Z,0.70
2023-10-07T17:34:11.065Z,0.70
2023-10-07T17:36:38.342Z,0.70
2023-10-07T17:39:05.758Z,1.15
2023-10-07T17:41:33.022Z,0.80
2023-10-07T17:44:00.307Z,0.98
2023-10-07T17:46:27.816Z,1.10
2023-10-07T17:48:55.058Z,1.00
2023-10-07T17:51:22.295Z,0.90
2023-10-07T17:53:49.494Z,0.88
2023-10-07T17:56:16.776Z,0.68
2023-10-07T17:58:44.157Z,0.90
2023-10-07T18:01:11.412Z,0.75
2023-10-07T18:03:40.022Z,0.85
2023-10-07T18:06:07.617Z,1.10
2023-10-07T18:08:35.284Z,0.70
2023-10-07T18:11:03.057Z,0.57
2023-10-07T18:13:30.840Z,0.75
2023-10-07T18:15:58.070Z,0.50
2023-10-07T18:18:25.665Z,0.70
2023-10-07T18:20:54.090Z,0.60
2023-10-07T18:23:22.370Z,0.57
2023-10-07T18:25:49.805Z,0.50
2023-10-07T18:28:17.098Z,0.80
2023-10-07T18:30:47.477Z,1.00
2023-10-07T18:33:15.687Z,0.63
2023-10-07T18:35:43.011Z,0.73
2023-10-07T18:38:10.389Z,0.50
2023-10-07T18:40:37.660Z,0.80
2023-10-07T18:43:05.312Z,0.82
2023-10-07T18:45:33.380Z,1.00
2023-10-07T18:48:00.876Z,0.77
2023-10-07T18:50:28.235Z,0.88
2023-10-07T18:52:55.606Z,0.93
2023-10-07T18:55:22.786Z,1.15
2023-10-07T18:57:50.170Z,0.98
2023-10-07T19:00:18.336Z,1.10
2023-10-07T19:02:45.757Z,0.93
2023-10-07T19:05:16.752Z,1.00
2023-10-07T19:07:45.799Z,1.30
2023-10-07T19:10:14.216Z,0.75
2023-10-07T19:12:42.296Z,0.60
2023-10-07T19:15:11.037Z,0.65
2023-10-07T19:17:38.747Z,0.75
2023-10-07T19:20:07.313Z,0.60
2023-10-07T19:22:41.355Z,0.80
2023-10-07T19:25:12.003Z,0.50
2023-10-07T19:27:40.252Z,0.63
2023-10-07T19:30:11.290Z,0.50
2023-10-07T19:32:42.414Z,0.60
2023-10-07T19:35:10.944Z,0.50
2023-10-07T19:37:38.190Z,0.80
2023-10-07T19:40:06.001Z,0.47
2023-10-07T19:42:33.289Z,0.70
2023-10-07T19:45:00.603Z,1.05
2023-10-07T19:47:27.942Z,0.50
2023-10-07T19:49:55.298Z,0.50
2023-10-07T19:52:22.552Z,0.85
2023-10-07T19:54:49.750Z,0.32
2023-10-07T19:57:16.985Z,0.40
2023-10-07T19:59:44.235Z,0.45
2023-10-07T20:02:11.570Z,0.43
2023-10-07T20:04:38.826Z,0.45
2023-10-07T20:07:07.311Z,0.63
2023-10-07T20:09:34.894Z,0.70
2023-10-07T20:12:02.138Z,0.70
2023-10-07T20:14:29.406Z,0.75
2023-10-07T20:16:58.648Z,0.60
2023-10-07T20:19:26.113Z,0.73
2023-10-07T20:21:54.306Z,0.50
2023-10-07T20:24:21.602Z,0.50
2023-10-07T20:26:49.841Z,0.60
2023-10-07T20:29:17.815Z,0.60
2023-10-07T20:31:45.294Z,0.40
2023-10-07T20:34:13.292Z,0.52
2023-10-07T20:36:40.721Z,0.50
2023-10-07T20:39:11.429Z,0.50
2023-10-07T20:41:39.023Z,0.50
2023-10-07T20:44:06.563Z,0.40
2023-10-07T20:46:33.888Z,0.50
2023-10-07T20:49:01.170Z,0.50
2023-10-07T20:51:28.904Z,0.40
2023-10-07T20:53:56.274Z,0.35
2023-10-07T20:56:24.077Z,1.13
2023-10-07T20:58:52.053Z,0.40
2023-10-07T21:01:21.562Z,0.70
2023-10-07T21:03:50.943Z,0.30
2023-10-07T21:06:19.349Z,0.43
2023-10-07T21:08:47.366Z,0.30
2023-10-07T21:11:15.329Z,0.40
2023-10-07T21:13:43.104Z,0.50
2023-10-07T21:16:10.356Z,0.47
2023-10-07T21:18:38.336Z,0.40
2023-10-07T21:21:13.060Z,0.52
2023-10-07T21:23:41.651Z,0.50
2023-10-07T21:26:23.234Z,0.70
2023-10-07T21:28:52.326Z,0.50
2023-10-07T21:31:20.049Z,0.55
2023-10-07T21:33:47.916Z,0.55
2023-10-07T21:36:15.157Z,0.38
2023-10-07T21:38:44.095Z,0.50
2023-10-07T21:41:11.806Z,0.55
2023-10-07T21:43:39.105Z,0.47
2023-10-07T21:46:07.768Z,0.75
2023-10-07T21:48:35.153Z,0.60
2023-10-07T21:51:09.818Z,0.50
2023-10-07T21:53:37.186Z,0.40
2023-10-07T21:56:06.618Z,0.50
2023-10-07T21:58:33.919Z,0.60
2023-10-07T22:01:09.964Z,0.90
2023-10-07T22:03:38.390Z,1.08
2023-10-07T22:06:05.793Z,1.13
2023-10-07T22:08:33.770Z,0.95
2023-10-07T22:11:01.276Z,1.58
2023-10-07T22:13:28.808Z,1.80
2023-10-07T22:15:56.285Z,1.90
2023-10-07T22:18:24.816Z,1.77
2023-10-07T22:20:53.477Z,1.98
2023-10-07T22:23:22.812Z,2.13
2023-10-07T22:25:54.132Z,2.15
2023-10-07T22:28:22.735Z,1.98
2023-10-07T22:30:51.166Z,2.08
2023-10-07T22:33:22.417Z,2.25
2023-10-07T22:35:50.053Z,1.90
2023-10-07T22:38:18.934Z,1.02
2023-10-07T22:40:51.511Z,1.40
2023-10-07T22:43:19.292Z,1.60
2023-10-07T22:45:51.250Z,1.88
2023-10-07T22:48:23.003Z,1.52
2023-10-07T22:50:55.875Z,2.28
2023-10-07T22:53:31.079Z,3.67
2023-10-07T22:56:05.292Z,4.70
2023-10-07T22:58:39.200Z,5.43
2023-10-07T23:01:16.690Z,5.80
2023-10-07T23:03:51.743Z,6.35
2023-10-07T23:06:20.742Z,5.80
2023-10-07T23:08:58.852Z,4.97
2023-10-07T23:11:27.800Z,5.57
2023-10-07T23:13:56.678Z,4.65
2023-10-07T23:16:29.436Z,8.23
2023-10-07T23:19:00.350Z,10.95
2023-10-07T23:21:46.320Z,14.50
2023-10-07T23:24:44.322Z,15.07
2023-10-07T23:27:14.380Z,16.45
2023-10-07T23:29:45.578Z,17.65
2023-10-07T23:32:25.244Z,19.45
2023-10-07T23:35:00.727Z,18.25
2023-10-07T23:39:58.587Z,16.45
2023-10-07T23:42:26.650Z,12.82
2023-10-07T23:44:55.724Z,12.25
2023-10-07T23:47:26.567Z,11.68
2023-10-07T23:49:57.316Z,7.32
2023-10-07T23:52:27.931Z,3.22
2023-10-07T23:54:58.621Z,3.25
2023-10-07T23:57:31.591Z,2.40
2023-10-07T23:59:59.508Z,2.78
